createdAt,value
2019-02-28T00:01:43.200Z,5.86
2019-02-28T00:04:13.043Z,5.85
2019-02-28T00:06:44.316Z,5.82
2019-02-28T00:09:17.322Z,5.77
2019-02-28T00:11:49.413Z,5.88
2019-02-28T00:14:19.827Z,5.86
2019-02-28T00:16:51.288Z,5.85
2019-02-28T00:19:24.012Z,6.05
2019-02-28T00:21:57.155Z,6.08
2019-02-28T00:24:30.088Z,6.14
2019-02-28T00:27:03.401Z,6.20
2019-02-28T00:29:35.004Z,6.41
2019-02-28T00:32:05.315Z,6.46
2019-02-28T00:34:39.342Z,6.51
2019-02-28T00:37:09.329Z,6.53
2019-02-28T00:39:42.144Z,6.47
2019-02-28T00:42:17.334Z,6.43
2019-02-28T00:44:45.050Z,6.40
2019-02-28T00:47:16.441Z,6.34
2019-02-28T00:49:49.597Z,6.49
2019-02-28T00:52:20.743Z,6.64
2019-02-28T00:54:52.914Z,6.65
2019-02-28T00:57:23.886Z,6.69
2019-02-28T00:59:56.398Z,6.65
2019-02-28T01:02:27.154Z,6.57
2019-02-28T01:05:01.290Z,6.54
2019-02-28T01:07:31.933Z,6.43
2019-02-28T01:10:04.534Z,6.36
2019-02-28T01:12:34.729Z,6.35
2019-02-28T01:15:10.027Z,6.26
2019-02-28T01:17:39.994Z,6.19
2019-02-28T01:20:14.765Z,6.13
2019-02-28T01:22:43.638Z,6.09
2019-02-28T01:25:14.102Z,6.09
2019-02-28T01:27:46.125Z,6.12
2019-02-28T01:30:17.838Z,6.11
2019-02-28T01:32:51.121Z,6.07
2019-02-28T01:35:22.620Z,6.15
2019-02-28T01:37:53.060Z,6.21
2019-02-28T01:40:25.275Z,6.37
2019-02-28T01:42:57.365Z,6.27
2019-02-28T01:45:28.090Z,6.34
2019-02-28T01:48:00.530Z,6.30
2019-02-28T01:50:31.159Z,6.28
2019-02-28T01:53:01.374Z,6.29
2019-02-28T01:55:32.111Z,6.26
2019-02-28T01:58:02.507Z,6.23
2019-02-28T02:00:34.997Z,6.32
2019-02-28T02:03:06.307Z,6.27
2019-02-28T02:05:37.835Z,6.27
2019-02-28T02:08:10.291Z,6.22
2019-02-28T02:10:42.351Z,6.14
2019-02-28T02:13:12.832Z,6.02
2019-02-28T02:15:44.851Z,5.92
2019-02-28T02:18:15.016Z,5.89
2019-02-28T02:20:45.707Z,5.88
2019-02-28T02:23:18.063Z,5.90
2019-02-28T02:25:50.279Z,5.91
2019-02-28T02:28:20.812Z,5.91
2019-02-28T02:30:52.228Z,5.97
2019-02-28T02:33:24.263Z,5.92
2019-02-28T02:35:54.465Z,5.86
2019-02-28T02:38:26.824Z,5.90
2019-02-28T02:41:00.583Z,5.85
2019-02-28T02:43:31.485Z,5.75
2019-02-28T02:46:02.745Z,5.76
2019-02-28T02:48:33.347Z,5.68
2019-02-28T02:51:10.727Z,5.75
2019-02-28T02:53:42.008Z,5.72
2019-02-28T02:56:12.137Z,5.63
2019-02-28T02:58:42.441Z,5.63
2019-02-28T03:01:12.641Z,5.59
2019-02-28T03:03:44.570Z,5.55
2019-02-28T03:06:16.002Z,5.54
2019-02-28T03:08:46.752Z,5.49
2019-02-28T03:11:18.137Z,5.49
2019-02-28T03:13:50.676Z,5.42
2019-02-28T03:16:21.894Z,5.43
2019-02-28T03:18:56.817Z,5.36
2019-02-28T03:21:25.709Z,5.28
2019-02-28T03:23:58.004Z,5.24
2019-02-28T03:26:28.776Z,5.18
2019-02-28T03:29:07.573Z,5.19
2019-02-28T03:31:34.317Z,5.13
2019-02-28T03:34:12.973Z,5.09
2019-02-28T03:36:36.750Z,5.07
2019-02-28T03:39:08.025Z,5.10
2019-02-28T03:41:39.693Z,5.08
2019-02-28T03:44:09.975Z,5.16
2019-02-28T03:46:46.457Z,5.13
2019-02-28T03:49:14.007Z,5.21
2019-02-28T03:51:44.401Z,5.17
2019-02-28T03:54:16.087Z,5.29
2019-02-28T03:56:51.662Z,5.28
2019-02-28T03:59:20.179Z,5.39
2019-02-28T04:01:50.550Z,5.50
2019-02-28T04:04:23.847Z,5.51
2019-02-28T04:06:54.212Z,5.50
2019-02-28T04:09:24.408Z,5.54
2019-02-28T04:11:55.063Z,5.60
2019-02-28T04:14:28.595Z,5.64
2019-02-28T04:16:58.153Z,5.57
2019-02-28T04:19:28.901Z,5.52
2019-02-28T04:22:00.198Z,5.61
2019-02-28T04:24:30.430Z,5.63
2019-02-28T04:27:07.014Z,5.67
2019-02-28T04:29:36.054Z,5.61
2019-02-28T04:32:08.602Z,5.61
2019-02-28T04:34:40.785Z,5.57
2019-02-28T04:37:12.019Z,5.52
2019-02-28T04:39:44.439Z,5.52
2019-02-28T04:42:15.047Z,5.50
2019-02-28T04:44:49.206Z,5.49
2019-02-28T04:47:20.409Z,5.41
2019-02-28T04:49:53.519Z,5.33
2019-02-28T04:52:23.204Z,5.31
2019-02-28T04:54:59.425Z,5.23
2019-02-28T04:57:30.627Z,5.26
2019-02-28T05:00:05.264Z,5.25
2019-02-28T05:02:34.757Z,5.18
2019-02-28T05:05:12.213Z,5.26
2019-02-28T05:07:39.759Z,5.20
2019-02-28T05:10:10.478Z,5.22
2019-02-28T05:12:41.380Z,5.30
2019-02-28T05:15:14.938Z,5.40
2019-02-28T05:17:46.376Z,5.50
2019-02-28T05:20:16.921Z,5.46
2019-02-28T05:22:48.669Z,5.42
2019-02-28T05:25:19.084Z,5.33
2019-02-28T05:27:50.958Z,5.34
2019-02-28T05:30:21.485Z,5.24
2019-02-28T05:32:51.904Z,5.14
2019-02-28T05:35:26.648Z,5.17
2019-02-28T05:37:55.529Z,5.14
2019-02-28T05:40:25.758Z,5.18
2019-02-28T05:42:58.526Z,5.15
2019-02-28T05:45:31.325Z,5.20
2019-02-28T05:48:03.955Z,5.11
2019-02-28T05:50:33.830Z,5.03
2019-02-28T05:53:06.331Z,4.98
2019-02-28T05:55:38.165Z,4.84
2019-02-28T05:58:09.514Z,4.83
2019-02-28T06:00:41.897Z,4.70
2019-02-28T06:03:13.554Z,4.68
2019-02-28T06:05:47.139Z,4.64
2019-02-28T06:08:19.370Z,4.61
2019-02-28T06:10:50.064Z,4.62
2019-02-28T06:13:20.394Z,4.58
2019-02-28T06:15:51.810Z,4.57
2019-02-28T06:18:21.952Z,4.56
2019-02-28T06:20:53.838Z,4.62
2019-02-28T06:23:24.417Z,4.60
2019-02-28T06:25:55.741Z,4.66
2019-02-28T06:28:31.038Z,4.67
2019-02-28T06:31:01.206Z,4.72
2019-02-28T06:33:34.359Z,4.72
2019-02-28T06:36:05.075Z,4.72
2019-02-28T06:38:36.681Z,4.85
2019-02-28T06:41:09.361Z,5.21
2019-02-28T06:43:40.607Z,5.81
2019-02-28T06:46:11.861Z,6.29
2019-02-28T06:48:43.327Z,6.58
2019-02-28T06:51:16.877Z,7.04
2019-02-28T06:53:46.829Z,7.39
2019-02-28T06:56:22.222Z,7.88
2019-02-28T06:58:51.631Z,8.34
2019-02-28T07:01:22.903Z,8.72
2019-02-28T07:03:54.408Z,8.94
2019-02-28T07:06:26.865Z,9.68
2019-02-28T07:09:02.133Z,9.91
2019-02-28T07:11:31.045Z,10.63
2019-02-28T07:14:01.548Z,10.77
2019-02-28T07:16:34.498Z,11.09
2019-02-28T07:19:04.335Z,11.29
2019-02-28T07:21:34.694Z,11.70
2019-02-28T07:24:05.304Z,11.78
2019-02-28T07:26:36.751Z,12.06
2019-02-28T07:29:10.928Z,12.47
2019-02-28T07:31:39.463Z,12.77
2019-02-28T07:34:09.621Z,13.08
2019-02-28T07:36:44.309Z,13.36
2019-02-28T07:39:12.327Z,13.18
2019-02-28T07:41:42.829Z,13.53
2019-02-28T07:44:14.284Z,13.05
2019-02-28T07:46:46.039Z,13.52
2019-02-28T07:49:18.077Z,13.83
2019-02-28T07:51:49.983Z,13.76
2019-02-28T07:54:20.865Z,14.38
2019-02-28T07:56:52.673Z,14.50
2019-02-28T07:59:26.073Z,14.41
2019-02-28T08:01:56.614Z,14.32
2019-02-28T08:04:27.296Z,14.63
2019-02-28T08:06:57.804Z,14.52
2019-02-28T08:09:30.842Z,14.45
2019-02-28T08:12:04.001Z,14.87
2019-02-28T08:14:35.523Z,14.73
2019-02-28T08:17:09.094Z,14.84
2019-02-28T08:19:40.883Z,14.82
2019-02-28T08:22:11.140Z,14.58
2019-02-28T08:24:41.863Z,15.04
2019-02-28T08:27:12.381Z,14.98
2019-02-28T08:29:45.787Z,15.03
2019-02-28T08:32:14.981Z,14.89
2019-02-28T08:34:46.846Z,15.20
2019-02-28T08:37:19.040Z,15.49
2019-02-28T08:39:50.888Z,14.89
2019-02-28T08:42:21.406Z,15.06
2019-02-28T08:44:58.070Z,15.05
2019-02-28T08:47:24.853Z,15.13
2019-02-28T08:49:55.135Z,15.02
2019-02-28T08:52:26.702Z,15.20
2019-02-28T08:54:59.745Z,15.22
2019-02-28T08:57:30.841Z,15.22
2019-02-28T09:00:01.320Z,15.34
2019-02-28T09:02:33.570Z,14.95
2019-02-28T09:05:04.539Z,14.94
2019-02-28T09:07:34.909Z,15.08
2019-02-28T09:10:11.712Z,14.94
2019-02-28T09:12:40.290Z,14.87
2019-02-28T09:15:12.022Z,14.98
2019-02-28T09:17:42.289Z,15.19
2019-02-28T09:20:14.660Z,15.46
2019-02-28T09:22:45.864Z,15.17
2019-02-28T09:25:21.556Z,15.12
2019-02-28T09:27:50.465Z,14.93
2019-02-28T09:30:31.130Z,14.02
2019-02-28T09:33:04.628Z,14.05
2019-02-28T09:35:34.943Z,14.38
2019-02-28T09:38:07.682Z,14.52
2019-02-28T09:40:38.203Z,14.39
2019-02-28T09:43:08.284Z,14.63
2019-02-28T09:45:39.849Z,14.33
2019-02-28T09:48:10.372Z,14.46
2019-02-28T09:50:40.701Z,14.47
2019-02-28T09:53:15.487Z,14.06
2019-02-28T09:55:45.248Z,14.10
2019-02-28T09:58:16.699Z,13.91
2019-02-28T10:00:50.220Z,14.05
2019-02-28T10:03:19.676Z,13.99
2019-02-28T10:05:51.167Z,13.90
2019-02-28T10:08:21.905Z,14.08
2019-02-28T10:10:55.448Z,13.85
2019-02-28T10:13:27.471Z,14.28
2019-02-28T10:15:58.186Z,14.48
2019-02-28T10:18:29.563Z,14.39
2019-02-28T10:21:01.902Z,14.04
2019-02-28T10:23:34.209Z,14.37
2019-02-28T10:26:06.394Z,14.51
2019-02-28T10:28:36.734Z,14.54
2019-02-28T10:31:08.265Z,14.20
2019-02-28T10:33:39.178Z,14.20
2019-02-28T10:36:12.904Z,14.36
2019-02-28T10:38:41.863Z,14.60
2019-02-28T10:41:12.307Z,14.61
2019-02-28T10:43:42.617Z,14.78
2019-02-28T10:46:16.577Z,14.63
2019-02-28T10:48:50.935Z,14.85
2019-02-28T10:51:20.625Z,14.67
2019-02-28T10:53:53.622Z,14.64
2019-02-28T10:56:24.466Z,14.57
2019-02-28T10:58:54.731Z,14.50
2019-02-28T11:01:25.082Z,14.13
2019-02-28T11:03:55.849Z,13.88
2019-02-28T11:06:28.901Z,14.19
2019-02-28T11:08:59.706Z,14.34
2019-02-28T11:11:30.455Z,14.41
2019-02-28T11:14:03.990Z,14.44
2019-02-28T11:16:36.159Z,14.43
2019-02-28T11:19:07.904Z,14.56
2019-02-28T11:21:38.883Z,14.46
2019-02-28T11:24:09.031Z,14.66
2019-02-28T11:26:41.315Z,14.57
2019-02-28T11:29:13.253Z,14.55
2019-02-28T11:31:43.932Z,14.69
2019-02-28T11:34:15.727Z,15.03
2019-02-28T11:36:47.324Z,15.01
2019-02-28T11:39:20.709Z,14.68
2019-02-28T11:41:53.767Z,14.85
2019-02-28T11:44:25.276Z,14.56
2019-02-28T11:46:55.678Z,14.66
2019-02-28T11:49:28.658Z,14.44
2019-02-28T11:51:59.505Z,14.29
2019-02-28T11:54:30.055Z,14.48
2019-02-28T11:57:03.004Z,14.57
2019-02-28T11:59:34.641Z,14.46
2019-02-28T12:02:05.495Z,14.32
2019-02-28T12:04:40.384Z,14.38
2019-02-28T12:07:09.997Z,14.31
2019-02-28T12:09:41.847Z,14.55
2019-02-28T12:12:12.610Z,14.65
2019-02-28T12:14:44.744Z,14.73
2019-02-28T12:17:16.075Z,14.77
2019-02-28T12:19:47.627Z,14.60
2019-02-28T12:22:18.493Z,14.52
2019-02-28T12:24:50.049Z,14.44
2019-02-28T12:27:20.396Z,14.38
2019-02-28T12:29:51.659Z,14.27
2019-02-28T12:32:22.264Z,14.29
2019-02-28T12:34:52.719Z,14.27
2019-02-28T12:37:23.133Z,14.27
2019-02-28T12:39:54.783Z,14.15
2019-02-28T12:42:25.123Z,14.39
2019-02-28T12:44:55.850Z,14.41
2019-02-28T12:47:29.471Z,14.48
2019-02-28T12:50:00.931Z,14.32
2019-02-28T12:52:34.173Z,14.25
2019-02-28T12:55:07.608Z,14.21
2019-02-28T12:57:40.608Z,14.11
2019-02-28T13:00:15.520Z,14.21
2019-02-28T13:02:47.254Z,14.32
2019-02-28T13:06:13.794Z,14.27
2019-02-28T13:08:44.364Z,14.11
2019-02-28T13:11:14.672Z,14.10
2019-02-28T13:13:46.790Z,13.99
2019-02-28T13:16:20.726Z,14.00
2019-02-28T13:19:16.387Z,13.98
2019-02-28T13:21:49.740Z,13.94
2019-02-28T13:24:20.377Z,13.64
2019-02-28T13:26:50.704Z,13.48
2019-02-28T13:29:23.291Z,13.60
2019-02-28T13:31:57.682Z,13.48
2019-02-28T13:34:29.018Z,13.59
2019-02-28T13:37:02.936Z,13.44
2019-02-28T13:39:32.820Z,13.51
2019-02-28T13:42:04.310Z,13.42
2019-02-28T13:44:36.360Z,13.31
2019-02-28T13:47:09.888Z,13.35
2019-02-28T13:49:41.063Z,13.49
2019-02-28T13:52:19.098Z,13.33
2019-02-28T13:54:43.667Z,13.07
2019-02-28T13:57:15.115Z,13.03
2019-02-28T13:59:45.739Z,12.93
2019-02-28T14:02:16.077Z,12.93
2019-02-28T14:04:46.929Z,12.77
2019-02-28T14:07:17.351Z,12.78
2019-02-28T14:09:47.935Z,12.78
2019-02-28T14:12:20.785Z,12.59
2019-02-28T14:14:52.834Z,12.81
2019-02-28T14:17:25.109Z,12.68
2019-02-28T14:19:55.912Z,12.69
2019-02-28T14:22:26.216Z,12.70
2019-02-28T14:24:56.363Z,12.74
2019-02-28T14:27:27.896Z,12.79
2019-02-28T14:29:59.485Z,12.79
2019-02-28T14:32:32.103Z,12.73
2019-02-28T14:35:02.528Z,12.73
2019-02-28T14:37:34.950Z,12.62
2019-02-28T14:40:09.438Z,12.57
2019-02-28T14:42:40.841Z,12.51
2019-02-28T14:45:14.345Z,12.50
2019-02-28T14:47:44.890Z,12.50
2019-02-28T14:50:18.577Z,12.58
2019-02-28T14:52:47.406Z,12.61
2019-02-28T14:55:17.520Z,12.51
2019-02-28T14:57:48.890Z,12.52
2019-02-28T15:00:27.392Z,12.52
2019-02-28T15:02:59.453Z,12.53
2019-02-28T15:05:30.433Z,12.50
2019-02-28T15:08:01.777Z,12.54
2019-02-28T15:10:34.535Z,12.36
2019-02-28T15:13:07.839Z,12.33
2019-02-28T15:15:39.297Z,12.36
2019-02-28T15:18:10.968Z,12.34
2019-02-28T15:20:41.798Z,12.39
2019-02-28T15:23:12.338Z,12.33
2019-02-28T15:25:43.722Z,12.36
2019-02-28T15:28:14.814Z,12.29
2019-02-28T15:30:46.725Z,12.32
2019-02-28T15:33:18.784Z,12.31
2019-02-28T15:35:49.829Z,12.30
2019-02-28T15:38:23.274Z,12.25
2019-02-28T15:40:55.683Z,12.13
2019-02-28T15:43:28.675Z,12.06
2019-02-28T15:45:59.106Z,12.01
2019-02-28T15:48:31.429Z,11.93
2019-02-28T15:51:04.881Z,11.96
2019-02-28T15:53:37.977Z,11.76
2019-02-28T15:56:13.207Z,11.70
2019-02-28T15:58:42.611Z,11.59
2019-02-28T16:01:14.021Z,11.67
2019-02-28T16:03:48.374Z,11.55
2019-02-28T16:06:20.586Z,11.58
2019-02-28T16:08:52.359Z,11.64
2019-02-28T16:11:22.781Z,11.49
2019-02-28T16:13:53.937Z,11.41
2019-02-28T16:16:25.478Z,11.42
2019-02-28T16:18:56.912Z,11.34
2019-02-28T16:21:30.006Z,11.17
2019-02-28T16:24:01.992Z,11.11
2019-02-28T16:26:32.300Z,11.10
2019-02-28T16:29:02.563Z,11.09
2019-02-28T16:31:32.959Z,11.04
2019-02-28T16:34:08.284Z,11.01
2019-02-28T16:36:37.169Z,10.97
2019-02-28T16:39:07.570Z,10.96
2019-02-28T16:41:38.638Z,10.85
2019-02-28T16:44:09.409Z,10.88
2019-02-28T16:46:40.046Z,10.88
2019-02-28T16:49:13.138Z,10.72
2019-02-28T16:51:45.003Z,10.71
2019-02-28T16:54:19.265Z,10.73
2019-02-28T16:56:48.625Z,10.61
2019-02-28T16:59:19.169Z,10.49
2019-02-28T17:01:54.839Z,10.44
2019-02-28T17:04:25.626Z,10.45
2019-02-28T17:06:56.086Z,10.33
2019-02-28T17:09:45.780Z,10.28
2019-02-28T17:12:28.872Z,10.28
2019-02-28T17:14:59.908Z,10.23
2019-02-28T17:17:43.470Z,10.27
2019-02-28T17:20:15.741Z,10.15
2019-02-28T17:22:46.719Z,9.97
2019-02-28T17:25:21.372Z,9.86
2019-02-28T17:28:15.272Z,9.66
2019-02-28T17:31:08.449Z,9.76
2019-02-28T17:33:43.379Z,9.77
2019-02-28T17:36:13.051Z,9.54
2019-02-28T17:38:45.122Z,9.55
2019-02-28T17:41:18.115Z,9.38
2019-02-28T17:44:19.956Z,9.33
2019-02-28T17:46:52.214Z,9.38
2019-02-28T17:50:23.959Z,9.25
2019-02-28T17:53:30.644Z,9.23
2019-02-28T17:57:01.324Z,9.09
2019-02-28T18:00:16.156Z,9.01
2019-02-28T18:03:33.382Z,8.94
2019-02-28T18:07:26.571Z,8.87
2019-02-28T18:10:40.919Z,8.80
2019-02-28T18:14:11.515Z,8.72
2019-02-28T18:18:15.630Z,8.64
2019-02-28T18:21:52.842Z,8.60
2019-02-28T18:25:43.393Z,8.65
2019-02-28T18:29:08.303Z,8.63
2019-02-28T18:31:41.369Z,8.59
2019-02-28T18:34:21.882Z,8.55
2019-02-28T18:36:55.529Z,8.49
2019-02-28T18:39:28.718Z,8.56
2019-02-28T18:42:03.531Z,8.53
2019-02-28T18:44:37.475Z,8.52
2019-02-28T18:47:08.204Z,8.52
2019-02-28T18:49:38.583Z,8.53
2019-02-28T18:52:09.167Z,8.54
2019-02-28T18:54:40.244Z,8.65
2019-02-28T18:57:10.998Z,8.65
2019-02-28T18:59:43.856Z,8.55
2019-02-28T19:02:14.607Z,8.55
2019-02-28T19:04:46.883Z,8.53
2019-02-28T19:07:18.602Z,8.51
2019-02-28T19:09:50.962Z,8.53
2019-02-28T19:12:21.425Z,8.47
2019-02-28T19:14:52.116Z,8.33
2019-02-28T19:17:24.710Z,8.22
2019-02-28T19:19:55.845Z,8.25
2019-02-28T19:22:26.824Z,8.46
2019-02-28T19:24:57.841Z,8.45
2019-02-28T19:27:28.346Z,8.40
2019-02-28T19:29:59.373Z,8.58
2019-02-28T19:32:33.916Z,8.49
2019-02-28T19:35:06.104Z,8.48
2019-02-28T19:37:38.270Z,8.43
2019-02-28T19:40:09.831Z,8.40
2019-02-28T19:42:41.658Z,8.41
2019-02-28T19:45:13.754Z,8.44
2019-02-28T19:47:44.640Z,8.52
2019-02-28T19:50:16.616Z,8.52
2019-02-28T19:52:48.821Z,8.59
2019-02-28T19:55:22.733Z,8.61
2019-02-28T19:57:53.210Z,8.62
2019-02-28T20:00:23.670Z,8.48
2019-02-28T20:02:54.533Z,8.46
2019-02-28T20:05:25.250Z,8.38
2019-02-28T20:07:56.657Z,8.38
2019-02-28T20:10:27.477Z,8.22
2019-02-28T20:13:01.612Z,8.13
2019-02-28T20:15:36.318Z,8.14
2019-02-28T20:18:08.656Z,8.13
2019-02-28T20:20:39.720Z,8.02
2019-02-28T20:23:12.124Z,8.06
2019-02-28T20:25:44.434Z,8.02
2019-02-28T20:28:16.509Z,7.92
2019-02-28T20:30:48.679Z,7.92
2019-02-28T20:33:19.505Z,7.92
2019-02-28T20:35:51.271Z,8.09
2019-02-28T20:38:23.358Z,8.08
2019-02-28T20:40:56.125Z,8.02
2019-02-28T20:43:26.568Z,8.01
2019-02-28T20:45:57.677Z,7.97
2019-02-28T20:48:28.237Z,8.00
2019-02-28T20:50:58.565Z,7.90
2019-02-28T20:53:30.226Z,7.84
2019-02-28T20:56:01.047Z,7.80
2019-02-28T20:58:32.427Z,7.88
2019-02-28T21:01:03.204Z,7.93
2019-02-28T21:03:35.515Z,7.96
2019-02-28T21:06:07.253Z,7.85
2019-02-28T21:08:39.542Z,7.93
2019-02-28T21:11:11.064Z,7.98
2019-02-28T21:13:41.416Z,7.95
2019-02-28T21:16:13.975Z,7.88
2019-02-28T21:18:47.835Z,7.88
2019-02-28T21:21:18.568Z,7.86
2019-02-28T21:23:49.254Z,7.77
2019-02-28T21:26:21.757Z,7.79
2019-02-28T21:28:52.354Z,7.89
2019-02-28T21:31:22.553Z,7.94
2019-02-28T21:33:53.030Z,7.87
2019-02-28T21:36:23.111Z,7.87
2019-02-28T21:38:53.163Z,7.84
2019-02-28T21:41:23.284Z,7.91
2019-02-28T21:43:53.799Z,7.84
2019-02-28T21:46:25.033Z,7.86
2019-02-28T21:48:55.566Z,7.86
2019-02-28T21:51:25.981Z,7.85
2019-02-28T21:53:56.872Z,7.86
2019-02-28T21:56:27.234Z,7.84
2019-02-28T21:58:57.801Z,7.84
2019-02-28T22:01:27.870Z,7.82
2019-02-28T22:03:57.983Z,7.79
2019-02-28T22:06:28.046Z,7.83
2019-02-28T22:08:58.081Z,7.85
2019-02-28T22:11:30.461Z,7.79
2019-02-28T22:14:00.700Z,7.83
2019-02-28T22:16:32.200Z,7.73
2019-02-28T22:19:02.653Z,7.69
2019-02-28T22:21:33.817Z,7.65
2019-02-28T22:24:07.121Z,7.62
2019-02-28T22:26:38.376Z,7.72
2019-02-28T22:29:10.596Z,7.63
2019-02-28T22:32:12.388Z,7.64
2019-02-28T22:35:03.387Z,7.58
2019-02-28T22:37:35.037Z,7.60
2019-02-28T22:40:05.934Z,7.58
2019-02-28T22:42:36.447Z,7.51
2019-02-28T22:45:07.594Z,7.53
2019-02-28T22:47:38.919Z,7.51
2019-02-28T22:50:10.576Z,7.44
2019-02-28T22:52:42.755Z,7.41
2019-02-28T22:55:14.937Z,7.41
2019-02-28T22:57:48.111Z,7.49
2019-02-28T23:01:01.213Z,7.60
2019-02-28T23:03:33.896Z,7.65
2019-02-28T23:06:05.666Z,7.70
2019-02-28T23:08:40.840Z,7.71
2019-02-28T23:11:11.375Z,7.74
2019-02-28T23:13:42.698Z,7.83
2019-02-28T23:16:14.034Z,7.80
2019-02-28T23:18:44.447Z,7.80
2019-02-28T23:21:14.812Z,7.86
2019-02-28T23:23:48.415Z,8.02
2019-02-28T23:26:25.284Z,7.96
2019-02-28T23:29:17.873Z,7.97
2019-02-28T23:32:32.559Z,7.92
2019-02-28T23:35:03.813Z,7.98
2019-02-28T23:37:34.165Z,8.02
2019-02-28T23:40:05.769Z,8.03
2019-02-28T23:42:36.475Z,8.11
2019-02-28T23:45:07.222Z,8.13
2019-02-28T23:47:37.746Z,8.13
2019-02-28T23:50:09.481Z,8.14
2019-02-28T23:52:41.507Z,8.13
2019-02-28T23:55:12.055Z,8.19
2019-02-28T23:57:45.148Z,8.37
